Time;durP1;ratioP1;P1;durP2;ratioP2;P2;SDS_P1;SDS_P2;PMS_P1;PMS_P2;Temp;Humidity;BMP_temperature;BMP_pressure;BME280_temperature;BME280_humidity;BME280_pressure;Samples;Min_cycle;Max_cycle;Signal;HPM_P1;HPM_P2
2022/06/20 00:01:07;;;;;;;34.97;32.67;;;;;;;21.70;39.81;101240.69;4974073;28;20042;-67
2022/06/20 00:03:41;;;;;;;34.25;32.25;;;;;;;21.70;40.03;101253.63;4974663;28;20051;-68
2022/06/20 00:06:13;;;;;;;33.30;31.65;;;;;;;21.69;39.71;101258.28;4973979;28;20460;-67
2022/06/20 00:08:39;;;;;;;34.42;32.40;;;;;;;21.67;39.85;101251.47;4974630;28;20034;-67
2022/06/20 00:11:05;;;;;;;34.75;32.92;;;;;;;21.65;39.39;101249.06;4973937;28;20109;-67
2022/06/20 00:13:33;;;;;;;34.53;32.47;;;;;;;21.65;39.88;101251.00;4977530;28;20045;-67
2022/06/20 00:16:01;;;;;;;32.33;30.73;;;;;;;21.61;39.66;101245.28;4977418;28;20035;-68
2022/06/20 00:18:27;;;;;;;;;;;;;;;21.58;39.71;101251.38;4977735;28;20035;-67
2022/06/20 00:20:53;;;;;;;31.60;30.00;;;;;;;21.56;39.63;101251.69;4976818;28;19914;-67
2022/06/20 00:23:19;;;;;;;32.60;30.70;;;;;;;21.54;39.74;101253.91;4977505;28;20023;-67
2022/06/20 00:25:44;;;;;;;32.83;30.92;;;;;;;21.55;39.68;101268.50;4977315;28;20035;-67
2022/06/20 00:28:11;;;;;;;33.38;31.67;;;;;;;21.53;39.84;101284.47;4977239;28;20035;-68
2022/06/20 00:30:37;;;;;;;33.35;31.35;;;;;;;21.51;39.70;101314.19;4977257;28;20394;-69
2022/06/20 00:33:03;;;;;;;33.30;31.70;;;;;;;21.51;40.02;101342.47;4977099;28;20475;-68
2022/06/20 00:35:28;;;;;;;33.45;31.65;;;;;;;21.51;39.91;101355.41;4959799;28;20046;-67
2022/06/20 00:37:57;;;;;;;32.13;30.33;;;;;;;21.48;40.19;101373.31;4977090;28;20030;-68
2022/06/20 00:40:29;;;;;;;34.00;31.73;;;;;;;21.48;40.05;101408.25;4977030;28;20034;-68
2022/06/20 00:42:55;;;;;;;32.15;30.50;;;;;;;21.46;39.80;101427.78;4976908;28;20034;-68
2022/06/20 00:45:23;;;;;;;32.95;31.25;;;;;;;21.44;39.89;101457.47;4976817;28;20073;-66
2022/06/20 00:47:51;;;;;;;32.00;30.23;;;;;;;21.43;39.95;101483.34;4976909;28;20069;-67
2022/06/20 00:50:24;;;;;;;32.20;30.35;;;;;;;21.42;39.86;101484.47;4976776;28;20033;-67
2022/06/20 00:52:50;;;;;;;32.95;31.05;;;;;;;21.39;39.71;101477.66;4977409;28;20030;-67
2022/06/20 00:55:25;;;;;;;33.22;31.63;;;;;;;21.39;40.03;101461.16;4977282;28;20340;-68
2022/06/20 00:57:55;;;;;;;32.78;31.13;;;;;;;21.38;39.90;101447.66;4977272;28;20066;-67
2022/06/20 01:00:28;;;;;;;31.33;29.63;;;;;;;21.38;40.40;101442.19;4976467;28;20214;-68
2022/06/20 01:03:01;;;;;;;32.80;31.13;;;;;;;21.36;39.90;101431.47;4976288;28;20061;-67
2022/06/20 01:05:34;;;;;;;33.38;31.45;;;;;;;21.35;40.09;101420.78;4976537;28;20034;-68
2022/06/20 01:08:13;;;;;;;32.67;30.63;;;;;;;21.33;39.86;101401.03;4977002;28;20027;-68
2022/06/20 01:10:44;;;;;;;31.20;29.60;;;;;;;21.31;40.33;101387.56;4976561;28;20037;-68
2022/06/20 01:13:15;;;;;;;33.60;31.70;;;;;;;21.29;40.06;101378.84;4976378;28;20113;-67
2022/06/20 01:15:43;;;;;;;32.35;30.52;;;;;;;21.29;40.35;101370.59;4977170;28;20027;-67
2022/06/20 01:18:19;;;;;;;32.55;30.70;;;;;;;21.28;40.47;101352.47;4976001;28;20043;-68
2022/06/20 01:20:45;;;;;;;31.45;29.75;;;;;;;21.27;40.19;101361.84;4976286;28;20518;-68
2022/06/20 01:23:11;;;;;;;32.35;30.65;;;;;;;21.26;40.01;101356.63;4975318;28;20038;-68
2022/06/20 01:25:51;;;;;;;33.42;31.70;;;;;;;21.25;40.09;101341.28;4976530;28;20031;-69
2022/06/20 01:28:21;;;;;;;32.15;30.55;;;;;;;21.24;40.50;101345.13;4976079;28;20110;-67
2022/06/20 01:30:48;;;;;;;32.58;30.45;;;;;;;21.22;40.32;101352.84;4976108;28;20027;-68
2022/06/20 01:33:17;;;;;;;32.42;30.77;;;;;;;21.21;40.19;101341.03;4975962;28;20443;-68
2022/06/20 01:38:27;;;;;;;31.48;29.90;;;;;;;21.18;40.15;101344.38;4976079;28;20045;-68
2022/06/20 01:43:37;;;;;;;31.40;29.80;;;;;;;21.14;40.17;101324.97;4975934;28;20053;-68
2022/06/20 01:46:09;;;;;;;31.95;30.35;;;;;;;21.13;40.41;101320.56;4975785;28;20089;-67
2022/06/20 01:48:41;;;;;;;32.63;30.85;;;;;;;21.12;40.81;101329.13;4975726;28;20035;-69
2022/06/20 01:51:30;;;;;;;32.80;31.02;;;;;;;21.12;40.64;101337.38;4975099;28;20333;-69
2022/06/20 01:53:57;;;;;;;32.42;30.55;;;;;;;21.09;40.43;101325.03;4975370;28;20043;-68
2022/06/20 01:56:24;;;;;;;31.13;29.52;;;;;;;21.09;40.52;101318.72;4975837;28;20046;-69
2022/06/20 01:58:58;;;;;;;30.73;28.92;;;;;;;21.08;40.74;101317.09;4975572;28;20527;-67
2022/06/20 02:01:25;;;;;;;31.48;29.67;;;;;;;21.06;40.59;101303.66;4975422;28;20033;-69
2022/06/20 02:03:51;;;;;;;30.08;28.45;;;;;;;21.05;40.41;101302.03;4975512;28;20139;-69
2022/06/20 02:06:19;;;;;;;31.55;29.85;;;;;;;21.04;40.56;101297.66;4958372;28;20054;-68
2022/06/20 02:08:50;;;;;;;31.90;30.08;;;;;;;21.04;40.47;101288.56;4975602;28;20030;-70
2022/06/20 02:11:27;;;;;;;32.83;31.13;;;;;;;21.02;40.77;101279.84;4975231;28;20031;-69
2022/06/20 02:13:57;;;;;;;31.77;30.08;;;;;;;20.99;40.66;101278.50;4975357;28;20498;-69
2022/06/20 02:16:26;;;;;;;31.77;29.88;;;;;;;20.98;40.37;101273.31;4975013;28;20031;-69
2022/06/20 02:18:54;;;;;;;30.50;28.58;;;;;;;20.96;40.68;101279.94;4975362;28;20035;-69
2022/06/20 02:21:25;;;;;;;30.80;29.30;;;;;;;20.95;40.39;101280.22;4975933;28;20041;-69
2022/06/20 02:23:55;;;;;;;32.25;30.05;;;;;;;20.95;40.38;101274.72;4974696;28;20399;-68
2022/06/20 02:26:22;;;;;;;32.35;30.38;;;;;;;20.94;40.47;101275.81;4975264;28;20372;-69
2022/06/20 02:29:23;;;;;;;31.42;29.77;;;;;;;20.92;40.62;101276.13;4975071;28;20031;-68
2022/06/20 02:32:09;;;;;;;30.98;29.38;;;;;;;20.91;40.56;101287.41;4973164;28;20058;-67
2022/06/20 02:34:35;;;;;;;31.05;29.00;;;;;;;20.89;40.79;101278.66;4975427;28;20046;-68
2022/06/20 02:37:09;;;;;;;30.60;29.10;;;;;;;20.87;40.47;101286.41;4975373;28;20085;-68
2022/06/20 02:39:38;;;;;;;31.30;29.67;;;;;;;20.86;40.88;101273.75;4974990;28;20034;-68
2022/06/20 02:42:09;;;;;;;29.98;28.33;;;;;;;20.83;40.74;101266.13;4974897;28;20460;-69
2022/06/20 02:44:36;;;;;;;29.85;28.25;;;;;;;20.80;40.57;101264.81;4974562;28;20027;-70
2022/06/20 02:47:07;;;;;;;30.58;29.08;;;;;;;20.79;40.51;101245.88;4974902;28;20027;-68
2022/06/20 02:49:35;;;;;;;30.05;28.33;;;;;;;20.78;40.53;101231.34;4957476;28;20031;-68
2022/06/20 02:52:03;;;;;;;30.73;28.83;;;;;;;20.77;40.94;101221.47;4957453;28;20061;-67
2022/06/20 02:54:32;;;;;;;;;;;;;;;20.73;40.88;101215.75;4975088;28;20265;-68
2022/06/20 02:57:12;;;;;;;30.58;29.00;;;;;;;20.72;40.43;101218.81;4974094;28;19917;-68
2022/06/20 02:59:46;;;;;;;30.60;28.80;;;;;;;20.72;40.73;101229.78;4974936;28;20027;-69
2022/06/20 03:02:13;;;;;;;31.80;29.85;;;;;;;20.68;40.95;101218.59;4974712;28;20097;-68
2022/06/20 03:04:42;;;;;;;30.70;29.05;;;;;;;20.69;40.78;101222.16;4974568;28;20037;-68
2022/06/20 03:07:26;;;;;;;30.20;28.60;;;;;;;20.66;41.33;101223.59;4974618;28;20035;-69
2022/06/20 03:09:57;;;;;;;30.80;29.20;;;;;;;20.62;41.12;101217.03;4974663;28;20037;-68
2022/06/20 03:12:23;;;;;;;31.80;30.00;;;;;;;20.61;40.82;101220.88;4974697;28;20031;-68
2022/06/20 03:14:58;;;;;;;30.67;29.02;;;;;;;20.61;41.45;101228.31;4974675;28;20113;-68
2022/06/20 03:17:24;;;;;;;30.85;29.15;;;;;;;20.57;41.33;101241.84;4957897;28;20109;-68
2022/06/20 03:19:58;;;;;;;30.73;28.73;;;;;;;20.57;41.07;101260.22;4974481;28;20534;-67
2022/06/20 03:22:29;;;;;;;31.20;29.30;;;;;;;20.55;41.49;101249.53;4957700;28;20115;-67
2022/06/20 03:24:55;;;;;;;30.25;28.65;;;;;;;20.52;41.51;101239.13;4974738;28;20026;-68
2022/06/20 03:27:25;;;;;;;31.35;29.63;;;;;;;20.52;41.00;101236.38;4974627;28;20033;-67
2022/06/20 03:29:54;;;;;;;29.45;27.95;;;;;;;20.50;41.46;101242.16;4975156;28;20049;-68
2022/06/20 03:32:23;;;;;;;;;;;;;;;20.48;41.17;101252.63;4974688;28;20063;-67
2022/06/20 03:34:50;;;;;;;28.58;27.08;;;;;;;20.46;41.07;101265.00;4975145;28;19973;-67
2022/06/20 03:37:16;;;;;;;30.98;29.30;;;;;;;20.45;41.45;101279.84;4973490;28;20034;-67
2022/06/20 03:39:44;;;;;;;30.83;28.95;;;;;;;20.43;41.35;101276.56;4974348;28;20041;-69
2022/06/20 03:42:09;;;;;;;29.48;27.77;;;;;;;20.43;41.17;101277.38;4974333;28;20467;-68
2022/06/20 03:44:40;;;;;;;29.45;27.75;;;;;;;20.42;41.22;101281.25;4957072;28;20027;-68
2022/06/20 03:47:12;;;;;;;29.73;27.95;;;;;;;20.42;41.60;101283.19;4975856;28;20035;-69
2022/06/20 03:49:48;;;;;;;30.23;28.63;;;;;;;20.41;41.61;101284.28;4978306;28;20085;-69
2022/06/20 03:52:22;;;;;;;30.08;28.45;;;;;;;20.39;41.48;101286.53;4978430;28;20030;-67
2022/06/20 03:55:05;;;;;;;29.98;28.30;;;;;;;20.38;41.74;101309.56;4977975;28;20030;-68
2022/06/20 03:57:55;;;;;;;30.88;29.17;;;;;;;20.37;41.46;101305.22;4976795;28;20031;-68
2022/06/20 04:00:35;;;;;;;32.28;30.35;;;;;;;20.35;41.80;101315.66;4977508;28;20093;-69
2022/06/20 04:03:15;;;;;;;29.80;28.05;;;;;;;20.34;41.28;101316.78;4978033;28;20046;-69
2022/06/20 04:06:11;;;;;;;30.08;28.15;;;;;;;20.32;41.78;101323.38;4978774;28;20027;-68
2022/06/20 04:11:36;;;;;;;29.50;28.00;;;;;;;20.29;41.23;101334.94;4977588;28;20042;-67
2022/06/20 04:14:17;;;;;;;28.92;27.27;;;;;;;20.28;41.51;101338.75;4978431;28;20042;-69
2022/06/20 04:16:49;;;;;;;29.90;28.45;;;;;;;20.27;41.61;101333.59;4960474;28;20053;-69
2022/06/20 04:19:36;;;;;;;29.70;28.15;;;;;;;20.26;41.63;101330.03;4977471;28;20491;-68
2022/06/20 04:22:14;;;;;;;30.60;28.40;;;;;;;20.25;41.57;101336.63;4960179;28;20058;-68
2022/06/20 04:24:47;;;;;;;29.75;28.05;;;;;;;20.24;41.63;101342.41;4977241;28;20121;-68
2022/06/20 04:27:24;;;;;;;29.70;28.20;;;;;;;20.23;41.56;101341.56;4977320;28;20041;-69
2022/06/20 04:29:56;;;;;;;30.05;27.75;;;;;;;20.22;41.60;101337.22;4977843;28;20407;-67
2022/06/20 04:32:34;;;;;;;30.10;28.50;;;;;;;20.22;41.84;101350.94;4977199;28;20154;-67
2022/06/20 04:35:02;;;;;;;29.02;27.55;;;;;;;20.21;41.80;101345.72;4977231;28;20046;-67
2022/06/20 04:37:35;;;;;;;30.35;28.15;;;;;;;20.20;41.72;101346.84;4977364;28;20027;-68
2022/06/20 04:40:25;;;;;;;29.13;27.27;;;;;;;20.20;41.55;101347.66;4977141;28;20027;-69
2022/06/20 04:43:14;;;;;;;28.73;27.10;;;;;;;20.18;41.55;101360.03;4977054;28;20460;-68
2022/06/20 04:45:46;;;;;;;28.65;26.90;;;;;;;20.15;41.73;101360.63;4977109;28;20049;-67
2022/06/20 04:48:14;;;;;;;29.00;27.52;;;;;;;20.14;41.50;101362.53;4976899;28;20038;-68
2022/06/20 04:50:46;;;;;;;28.20;26.80;;;;;;;20.14;41.64;101365.28;4977111;28;20049;-69
2022/06/20 04:53:15;;;;;;;29.77;28.17;;;;;;;20.14;41.63;101356.25;4977616;28;20027;-69
2022/06/20 04:55:51;;;;;;;28.17;26.58;;;;;;;20.13;41.71;101351.84;4976681;28;20031;-68
2022/06/20 04:58:26;;;;;;;29.85;28.27;;;;;;;20.13;41.63;101355.41;4975641;28;20056;-68
2022/06/20 05:00:52;;;;;;;29.65;28.05;;;;;;;20.12;41.43;101355.72;4976998;28;20113;-71
2022/06/20 05:03:22;;;;;;;30.25;28.23;;;;;;;20.12;41.49;101361.22;4976144;28;20117;-68
2022/06/20 05:05:51;;;;;;;29.50;27.90;;;;;;;20.09;41.73;101363.41;4977122;28;20122;-68
2022/06/20 05:08:24;;;;;;;29.67;28.02;;;;;;;20.09;41.48;101360.69;4976511;28;20054;-67
2022/06/20 05:11:04;;;;;;;28.40;26.95;;;;;;;20.09;41.67;101368.09;4976511;28;20031;-69
2022/06/20 05:13:41;;;;;;;29.63;28.00;;;;;;;20.07;41.89;101370.31;4976387;28;20448;-68
2022/06/20 05:16:14;;;;;;;29.30;27.58;;;;;;;20.07;41.80;101386.75;4976388;28;20058;-68
2022/06/20 05:18:42;;;;;;;28.67;26.98;;;;;;;20.07;41.44;101387.56;4975958;28;20360;-70
2022/06/20 05:21:13;;;;;;;29.25;27.55;;;;;;;20.06;41.85;101383.22;4976265;28;20081;-68
2022/06/20 05:23:45;;;;;;;29.23;27.77;;;;;;;20.06;41.71;101385.13;4958728;28;20521;-68
2022/06/20 05:26:17;;;;;;;29.30;27.60;;;;;;;20.06;41.62;101379.66;4976805;28;20436;-68
2022/06/20 05:28:46;;;;;;;28.67;27.17;;;;;;;20.04;41.53;101381.88;4976642;28;20440;-68
2022/06/20 05:31:15;;;;;;;29.20;27.70;;;;;;;20.04;41.60;101379.94;4975963;28;20391;-67
2022/06/20 05:33:47;;;;;;;28.20;26.80;;;;;;;20.05;41.91;101386.22;4975864;28;20031;-68
2022/06/20 05:36:25;;;;;;;29.05;27.40;;;;;;;20.04;41.42;101384.59;4975502;28;20388;-69
2022/06/20 05:39:19;;;;;;;28.80;27.23;;;;;;;20.03;41.46;101381.06;4958950;28;20031;-69
2022/06/20 05:41:45;;;;;;;29.02;27.17;;;;;;;20.02;41.42;101373.09;4975698;28;20475;-67
2022/06/20 05:44:12;;;;;;;28.70;27.05;;;;;;;20.02;41.46;101384.06;4975792;28;20033;-69
2022/06/20 05:46:49;;;;;;;28.73;27.13;;;;;;;20.02;42.02;101386.81;4975737;28;20105;-68
2022/06/20 05:49:25;;;;;;;28.45;27.05;;;;;;;20.01;41.75;101388.75;4976075;28;20034;-67
2022/06/20 05:51:53;;;;;;;28.73;27.23;;;;;;;20.01;41.39;101401.66;4976273;28;20081;-68
2022/06/20 05:54:24;;;;;;;28.92;27.10;;;;;;;20.00;41.98;101391.75;4975564;28;20039;-70
2022/06/20 05:56:55;;;;;;;29.13;27.63;;;;;;;20.01;41.98;101401.66;4975913;28;20109;-67
2022/06/20 05:59:26;;;;;;;29.77;28.13;;;;;;;20.00;41.57;101408.22;4975800;28;20455;-68
2022/06/20 06:01:55;;;;;;;28.52;27.08;;;;;;;19.99;41.45;101401.94;4975906;28;20031;-68
2022/06/20 06:04:33;;;;;;;28.17;26.45;;;;;;;20.01;41.50;101404.38;4976446;28;20051;-68
2022/06/20 06:07:09;;;;;;;28.88;27.45;;;;;;;19.99;41.65;101401.94;4975399;28;20054;-68
2022/06/20 06:09:43;;;;;;;30.33;28.20;;;;;;;19.98;42.14;101408.53;4974729;28;20031;-69
2022/06/20 06:12:18;;;;;;;29.15;27.65;;;;;;;19.98;41.85;101402.19;4975236;28;20109;-67
2022/06/20 06:14:50;;;;;;;29.33;27.77;;;;;;;19.98;41.82;101397.56;4975717;28;20031;-68
2022/06/20 06:17:24;;;;;;;28.92;27.42;;;;;;;19.98;41.46;101410.44;4975330;28;20027;-68
2022/06/20 06:19:55;;;;;;;29.33;27.52;;;;;;;19.97;41.80;101406.06;4975379;28;20031;-67
2022/06/20 06:22:24;;;;;;;28.08;26.58;;;;;;;19.96;41.46;101409.91;4975711;28;20119;-67
2022/06/20 06:24:55;;;;;;;29.25;27.15;;;;;;;19.95;41.97;101416.50;4974808;28;20069;-68
2022/06/20 06:27:25;;;;;;;28.63;27.13;;;;;;;19.95;41.58;101408.28;4975305;28;20121;-67
2022/06/20 06:30:01;;;;;;;28.48;26.77;;;;;;;19.96;41.77;101409.91;4975283;28;20035;-68
2022/06/20 06:32:27;;;;;;;28.83;27.23;;;;;;;19.95;41.86;101408.28;4975255;28;20053;-68
2022/06/20 06:34:58;;;;;;;30.65;28.77;;;;;;;19.96;41.70;101401.66;4974630;28;20070;-68
2022/06/20 06:38:00;;;;;;;28.38;26.70;;;;;;;19.94;41.91;101412.94;4975432;28;20027;-67
2022/06/20 06:40:40;;;;;;;29.92;28.20;;;;;;;19.93;41.73;101408.53;4974427;28;20481;-68
2022/06/20 06:43:28;;;;;;;27.92;26.42;;;;;;;19.95;41.74;101411.00;4975332;28;20464;-67
2022/06/20 06:45:57;;;;;;;29.25;27.65;;;;;;;19.95;41.83;101414.56;4974709;28;20023;-68
2022/06/20 06:48:45;;;;;;;29.20;27.58;;;;;;;19.95;41.79;101408.28;4974749;28;20030;-69
2022/06/20 06:51:19;;;;;;;28.57;26.63;;;;;;;19.95;41.80;101419.25;4975376;28;20050;-68
2022/06/20 06:53:50;;;;;;;29.90;27.75;;;;;;;19.95;41.68;101419.25;4957330;28;20035;-68
2022/06/20 06:56:23;;;;;;;28.80;27.35;;;;;;;19.95;41.58;101435.69;4974640;28;20034;-70
2022/06/20 06:59:01;;;;;;;30.35;28.20;;;;;;;19.96;41.60;101438.16;4974824;28;20114;-68
2022/06/20 07:01:33;;;;;;;29.77;27.85;;;;;;;19.96;41.53;101443.63;4974128;28;20348;-69
2022/06/20 07:04:11;;;;;;;29.45;27.65;;;;;;;19.98;41.66;101437.84;4974874;28;20141;-68
2022/06/20 07:06:44;;;;;;;29.25;27.65;;;;;;;19.98;41.84;101448.81;4974565;28;20035;-68
2022/06/20 07:09:28;;;;;;;29.17;27.33;;;;;;;20.00;41.81;101454.84;4974911;28;20034;-69
2022/06/20 07:12:09;;;;;;;29.45;27.70;;;;;;;20.01;41.57;101451.81;4974818;28;20468;-68
2022/06/20 07:14:41;;;;;;;29.23;27.65;;;;;;;20.02;41.67;101456.19;4974159;28;20039;-68
2022/06/20 07:17:24;;;;;;;29.13;27.63;;;;;;;20.04;41.44;101451.22;4958005;28;20379;-69
2022/06/20 07:19:51;;;;;;;30.08;28.48;;;;;;;20.05;41.95;101444.63;4974702;28;20031;-70
2022/06/20 07:22:20;;;;;;;28.35;26.95;;;;;;;20.09;41.65;101466.81;4976858;28;20049;-67
2022/06/20 07:24:47;;;;;;;30.25;28.30;;;;;;;20.10;41.70;101446.50;4978200;28;20042;-68
2022/06/20 07:27:18;;;;;;;29.17;27.45;;;;;;;20.14;41.58;101458.53;4978264;28;20102;-69
2022/06/20 07:29:52;;;;;;;28.75;27.25;;;;;;;20.16;41.64;101458.22;4978656;28;20023;-70
2022/06/20 07:32:22;;;;;;;28.27;26.88;;;;;;;20.18;41.73;101451.34;4978601;28;20027;-69
2022/06/20 07:34:57;;;;;;;29.77;27.88;;;;;;;20.20;41.83;101457.38;4977977;28;20058;-70
2022/06/20 07:37:30;;;;;;;28.75;27.25;;;;;;;20.22;41.62;101455.16;4978196;28;20459;-68
2022/06/20 07:40:15;;;;;;;28.70;27.13;;;;;;;20.23;41.86;101459.53;4977410;28;20124;-68
2022/06/20 07:42:44;;;;;;;28.85;27.35;;;;;;;20.25;41.91;101462.81;4961259;28;20042;-69
2022/06/20 07:45:18;;;;;;;29.02;27.42;;;;;;;20.27;41.43;101463.34;4977970;28;20057;-67
2022/06/20 07:47:57;;;;;;;29.77;28.02;;;;;;;20.31;41.94;101461.66;4978080;28;20039;-68
2022/06/20 07:50:37;;;;;;;29.52;27.88;;;;;;;20.35;41.92;101463.81;4978258;28;20445;-69
2022/06/20 07:53:14;;;;;;;30.38;28.77;;;;;;;20.38;42.01;101457.75;4978500;28;20030;-70
2022/06/20 07:55:49;;;;;;;28.85;27.15;;;;;;;20.40;41.97;101463.75;4977902;28;20038;-67
2022/06/20 07:58:21;;;;;;;29.45;27.77;;;;;;;20.43;41.68;101465.91;4977803;28;20038;-67
2022/06/20 08:00:51;;;;;;;31.38;29.67;;;;;;;20.46;41.75;101468.91;4977746;28;20478;-69
2022/06/20 08:03:24;;;;;;;30.85;29.05;;;;;;;20.49;41.45;101476.56;4977539;28;20063;-69
2022/06/20 08:06:03;;;;;;;32.38;30.58;;;;;;;20.54;41.87;101467.44;4977849;28;20034;-69
2022/06/20 08:08:45;;;;;;;29.35;27.77;;;;;;;20.57;41.81;101477.06;4977526;28;20093;-69
2022/06/20 08:11:41;;;;;;;29.80;28.30;;;;;;;20.61;41.56;101467.09;4977397;28;20054;-69
2022/06/20 08:14:35;;;;;;;29.75;28.20;;;;;;;20.66;41.80;101476.13;4957476;28;20043;-69
2022/06/20 08:17:03;;;;;;;30.80;29.20;;;;;;;20.70;41.61;101479.91;4977852;28;20114;-69
2022/06/20 08:19:30;;;;;;;29.52;28.02;;;;;;;20.74;41.65;101478.22;4976169;28;20039;-69
2022/06/20 08:22:11;;;;;;;31.73;29.80;;;;;;;20.81;41.89;101480.59;4977223;28;20031;-68
2022/06/20 08:24:51;;;;;;;30.67;29.08;;;;;;;20.86;41.54;101477.78;4977192;28;20125;-68
2022/06/20 08:27:43;;;;;;;32.33;30.42;;;;;;;20.93;41.65;101480.97;4977459;28;20099;-68
2022/06/20 08:30:16;;;;;;;31.42;29.75;;;;;;;20.97;41.78;101489.47;4976958;28;20533;-68
2022/06/20 08:33:09;;;;;;;31.65;29.95;;;;;;;21.03;41.63;101482.78;4977069;28;20070;-67
2022/06/20 08:35:45;;;;;;;33.65;31.75;;;;;;;21.07;41.78;101486.59;4977585;28;20022;-67
2022/06/20 08:38:28;;;;;;;32.92;31.13;;;;;;;21.12;41.71;101489.25;4976957;28;20026;-68
2022/06/20 08:41:12;;;;;;;32.72;30.92;;;;;;;21.17;41.59;101486.44;4977574;28;20038;-68
2022/06/20 08:44:04;;;;;;;32.95;30.98;;;;;;;21.24;41.88;101491.53;4977128;28;20038;-68
2022/06/20 08:46:37;;;;;;;31.73;30.13;;;;;;;21.30;41.96;101495.06;4977075;28;20030;-67
2022/06/20 08:49:23;;;;;;;33.83;31.83;;;;;;;21.35;41.95;101514.22;4977483;28;20030;-68
2022/06/20 08:52:06;;;;;;;33.95;32.05;;;;;;;21.43;41.64;101507.28;4977107;28;20371;-72
2022/06/20 08:54:56;;;;;;;34.50;32.15;;;;;;;21.49;41.37;101503.31;4976933;28;20456;-66
2022/06/20 08:57:34;;;;;;;32.58;30.98;;;;;;;21.53;40.90;101507.13;4976841;28;20149;-71
2022/06/20 09:00:19;;;;;;;35.58;32.97;;;;;;;21.53;40.36;101510.69;4977062;28;20031;-71
2022/06/20 09:02:53;;;;;;;33.72;31.73;;;;;;;21.56;40.48;101514.75;4976398;28;20050;-74
2022/06/20 09:05:51;;;;;;;34.00;32.20;;;;;;;21.59;39.90;101512.22;4976448;28;20073;-72
2022/06/20 09:08:43;;;;;;;32.85;31.25;;;;;;;21.64;40.18;101513.28;4976983;28;20489;-67
2022/06/20 09:11:36;;;;;;;34.60;32.47;;;;;;;21.71;40.13;101516.47;4976269;28;20057;-69
2022/06/20 09:14:23;;;;;;;34.70;32.85;;;;;;;21.78;40.56;101517.72;4976228;28;20042;-67
2022/06/20 09:17:09;;;;;;;35.65;33.42;;;;;;;21.87;40.29;101517.03;4976663;28;20078;-67
2022/06/20 09:19:53;;;;;;;34.50;32.55;;;;;;;21.96;40.67;101527.06;4976434;28;20035;-69
2022/06/20 09:22:46;;;;;;;35.28;32.78;;;;;;;22.04;40.39;101523.59;4976101;28;20033;-68
2022/06/20 09:25:26;;;;;;;36.08;34.22;;;;;;;22.13;40.73;101525.69;4975742;28;20380;-68
2022/06/20 09:28:18;;;;;;;35.33;33.35;;;;;;;22.20;40.55;101524.22;4975972;28;20050;-69
2022/06/20 09:31:18;;;;;;;34.47;32.55;;;;;;;22.31;40.65;101535.84;4935876;28;20039;-68
2022/06/20 09:34:09;;;;;;;36.67;34.78;;;;;;;22.38;40.25;101525.25;4974843;28;20043;-67
2022/06/20 09:37:00;;;;;;;35.75;33.58;;;;;;;22.50;39.93;101521.19;4976501;28;20042;-68
2022/06/20 09:39:40;;;;;;;35.47;33.33;;;;;;;22.58;39.78;101526.81;4976336;28;20031;-69
2022/06/20 09:42:15;;;;;;;35.90;33.88;;;;;;;22.65;39.93;101523.63;4976655;28;20038;-68
2022/06/20 09:44:52;;;;;;;36.85;34.83;;;;;;;22.72;39.34;101518.53;4973689;28;20113;-70
2022/06/20 09:47:56;;;;;;;36.92;34.88;;;;;;;22.80;40.00;101519.75;4976142;28;20142;-66
2022/06/20 09:51:23;;;;;;;36.72;34.72;;;;;;;22.87;39.84;101515.47;4958509;28;20587;-69
2022/06/20 09:54:02;;;;;;;36.53;34.47;;;;;;;22.96;39.57;101517.53;4913867;29;20121;-68
2022/06/20 09:56:50;;;;;;;36.65;34.65;;;;;;;23.03;39.20;101512.44;4975729;28;20030;-68
2022/06/20 09:59:41;;;;;;;36.97;34.67;;;;;;;23.10;39.29;101524.66;4976158;28;20037;-68
2022/06/20 10:02:12;;;;;;;38.08;36.17;;;;;;;23.16;39.87;101519.88;4976166;28;20069;-69
2022/06/20 10:04:43;;;;;;;38.45;36.25;;;;;;;23.24;38.95;101524.66;4937311;29;20036;-68
2022/06/20 10:07:17;;;;;;;39.75;37.55;;;;;;;23.32;39.03;101526.66;4937531;29;20103;-67
2022/06/20 10:09:51;;;;;;;38.20;36.30;;;;;;;23.39;39.40;101519.94;4937883;29;20028;-67
2022/06/20 10:12:25;;;;;;;38.92;36.88;;;;;;;23.45;38.83;101518.69;4937533;29;20062;-68
2022/06/20 10:15:18;;;;;;;38.33;36.30;;;;;;;23.54;38.85;101528.66;4937111;29;20460;-67
2022/06/20 10:18:04;;;;;;;40.13;37.80;;;;;;;23.62;38.91;101532.63;4937112;29;20039;-68
2022/06/20 10:20:45;;;;;;;39.05;37.05;;;;;;;23.69;38.84;101534.94;4937411;29;20075;-69
2022/06/20 10:23:27;;;;;;;40.15;37.83;;;;;;;23.78;38.65;101529.53;4936719;29;20047;-68
2022/06/20 10:26:14;;;;;;;39.33;37.33;;;;;;;23.85;38.67;101538.19;4937025;29;20034;-67
2022/06/20 10:28:59;;;;;;;40.42;37.97;;;;;;;23.94;38.58;101539.06;4937007;29;20042;-67
2022/06/20 10:31:44;;;;;;;40.78;38.67;;;;;;;24.03;38.19;101539.13;4936893;29;20520;-67
2022/06/20 10:34:47;;;;;;;42.72;40.33;;;;;;;24.10;37.89;101531.22;4937061;29;20042;-75
2022/06/20 10:37:33;;;;;;;40.35;38.25;;;;;;;24.17;38.03;101548.94;4936468;29;20031;-67
2022/06/20 10:40:05;;;;;;;40.53;38.63;;;;;;;24.27;38.36;101563.63;4937267;29;20125;-68
2022/06/20 10:42:33;;;;;;;41.30;38.88;;;;;;;24.32;37.99;101547.75;4936150;29;20035;-68
2022/06/20 10:45:01;;;;;;;43.75;41.55;;;;;;;24.39;38.08;101559.16;4936613;29;20094;-67
2022/06/20 10:47:50;;;;;;;44.38;41.83;;;;;;;24.50;37.82;101561.69;4936555;29;20135;-66
2022/06/20 10:50:15;;;;;;;43.83;41.38;;;;;;;24.56;38.00;101560.41;4926236;29;20044;-67
2022/06/20 10:53:06;;;;;;;42.80;40.70;;;;;;;24.65;37.63;101557.69;4936786;29;20115;-69
2022/06/20 10:55:54;;;;;;;41.95;39.85;;;;;;;24.72;37.94;101567.16;4936909;29;20046;-70
2022/06/20 10:58:25;;;;;;;43.90;41.70;;;;;;;24.79;37.78;101567.47;4936573;29;20055;-68
2022/06/20 11:00:59;;;;;;;43.10;40.80;;;;;;;24.88;37.44;101569.47;4936521;29;20079;-69
2022/06/20 11:03:45;;;;;;;42.50;40.25;;;;;;;24.95;37.75;101578.94;4955868;28;20046;-69
2022/06/20 11:06:16;;;;;;;43.28;40.97;;;;;;;25.01;37.55;101576.84;4973638;28;20035;-68
2022/06/20 11:08:47;;;;;;;44.40;41.90;;;;;;;25.08;37.33;101574.41;4974644;28;20069;-68
2022/06/20 11:11:37;;;;;;;44.80;42.28;;;;;;;25.15;36.87;101580.28;4974792;28;20118;-69
2022/06/20 11:14:16;;;;;;;45.50;43.05;;;;;;;25.22;36.35;101585.38;4974892;28;20050;-68
2022/06/20 11:16:52;;;;;;;45.15;42.85;;;;;;;25.27;36.72;101579.69;4975108;28;20077;-69
2022/06/20 11:19:20;;;;;;;44.45;42.25;;;;;;;25.33;36.99;101572.06;4974027;28;20180;-68
2022/06/20 11:21:57;;;;;;;;;;;;;;;25.38;36.99;101575.50;4975190;28;20113;-69
2022/06/20 11:24:37;;;;;;;41.95;39.85;;;;;;;25.44;36.89;101576.94;4974769;28;19921;-68
2022/06/20 11:27:27;;;;;;;44.03;41.72;;;;;;;25.51;36.18;101581.19;4974925;28;20031;-67
2022/06/20 11:30:14;;;;;;;44.70;42.50;;;;;;;25.59;36.42;101581.19;4974762;28;20096;-69
2022/06/20 11:32:57;;;;;;;44.25;41.85;;;;;;;25.64;36.56;101585.75;4974925;28;20031;-68
2022/06/20 11:35:26;;;;;;;43.85;41.75;;;;;;;25.69;36.66;101583.66;4974686;28;20513;-69
2022/06/20 11:38:20;;;;;;;48.47;45.83;;;;;;;25.74;36.04;101579.91;4974355;28;20463;-70
2022/06/20 11:40:57;;;;;;;47.97;45.50;;;;;;;25.80;36.25;101583.31;4973824;28;20102;-72
2022/06/20 11:43:28;;;;;;;45.33;43.05;;;;;;;25.83;35.89;101577.97;4974254;28;20113;-69
2022/06/20 11:46:18;;;;;;;50.15;47.85;;;;;;;25.86;35.15;101574.56;4974337;28;20414;-71
2022/06/20 11:48:56;;;;;;;45.33;42.60;;;;;;;25.91;35.54;101570.81;4974864;28;20086;-69
2022/06/20 11:51:30;;;;;;;45.95;43.55;;;;;;;25.94;35.11;101572.94;4974265;28;20106;-69
2022/06/20 11:54:26;;;;;;;50.08;47.70;;;;;;;25.99;35.99;101585.78;4974548;28;20058;-69
2022/06/20 11:56:58;;;;;;;46.30;44.00;;;;;;;26.04;35.03;101569.81;4974485;28;20110;-69